Detalii statie AGROSTAR [00001CEF]

Toti senzorii

Date Temperatura solului [C]Precipitatii [mm]Voltaj baterie [mV]HC Air temperature [C]HC Relative humidity [%]Punctul de roua [C]
medieminmaxsumaultimamedieminmaxmediemediemin
2018-12-09 16:00:00 2.1 2 2.2 0 6756 2.79 2.7 2.93 89.75 1.1 1.1
2018-12-09 17:00:00 2.2 2.1 2.5 0 6718 2.44 2.24 2.68 91.26 1 0.8
2018-12-09 18:00:00 2.3 2.2 2.4 0 6688 1.74 1.18 2.31 92.74 0.5 0.1
2018-12-09 19:00:00 2.3 2.3 2.5 0 6678 0.36 -0.03 0.75 97.7 0 -0.3
2018-12-09 20:00:00 2.2 2.2 2.5 0 6688 -0.01 -0.29 0.5 100 0 -0.1
2018-12-09 21:00:00 2.3 2.3 2.4 0 6678 0.41 -0.17 0.76 100 0.4 0
2018-12-09 22:00:00 2.3 2.2 2.4 0 6678 0.49 0.36 0.7 100 0.4 0.3
2018-12-09 23:00:00 2.2 2.2 2.3 0 6678 0.4 0.34 0.46 100 0.3 0.3
2018-12-10 00:00:00 2.2 2.2 2.4 0 6678 0.38 0.35 0.44 100 0.3 0.3
2018-12-10 01:00:00 2.2 2.2 2.3 0 6668 0.48 0.39 0.67 100 0.4 0.3
2018-12-10 02:00:00 2.2 2.1 2.3 0 6678 0.56 0.53 0.62 100 0.5 0.5
2018-12-10 03:00:00 2.2 2.2 2.3 0.2 6678 0.6 0.52 0.69 100 0.5 0.5
2018-12-10 04:00:00 2.2 2.2 2.3 0 6678 0.67 0.62 0.74 100 0.6 0.6
2018-12-10 05:00:00 2.2 2.1 2.3 0 6668 0.78 0.72 0.84 100 0.7 0.7
2018-12-10 06:00:00 2.2 2.1 2.4 0 6678 0.78 0.66 0.86 100 0.7 0.6
2018-12-10 07:00:00 2.3 2.3 2.4 0 6678 0.76 0.58 0.87 100 0.7 0.5
2018-12-10 08:00:00 2.2 2.2 2.3 0 6678 0.89 0.81 1.05 100 0.8 0.8
2018-12-10 09:00:00 2.3 2.3 2.4 0 6668 1.02 0.89 1.15 100 0.9 0.8
2018-12-10 10:00:00 2.3 2.2 2.4 0 6688 1.28 1.15 1.45 100 1.2 1.1
2018-12-10 11:00:00 2.3 2.3 2.5 0 6698 1.69 1.5 1.95 100 1.6 1.5
2018-12-10 12:00:00 2.3 2.3 2.5 0 6738 2.18 1.93 2.48 100 2.1 1.9
2018-12-10 13:00:00 2.4 2.3 2.6 0 6748 2.6 2.46 2.72 100 2.5 2.4
2018-12-10 14:00:00 2.5 2.5 2.6 0.2 6728 2.71 2.47 2.91 100 2.6 2.4
2018-12-10 15:00:00 2.5 2.3 2.7 0.2 6708 2.57 2.49 2.7 100 2.5 2.4
2018-12-10 16:00:00 2.6 2.5 2.8 0 6688 2.46 2.3 2.56 100 2.4 2.3
2018-12-10 17:00:00 2.7 2.6 2.9 0 6688 2.26 2.21 2.3 100 2.2 2.2
2018-12-10 18:00:00 2.8 2.7 3 0 6688 2.24 2.19 2.29 100 2.1 2.1
2018-12-10 19:00:00 2.9 2.8 3 0 6678 2.16 2.02 2.3 100 2.1 2
2018-12-10 20:00:00 2.8 2.8 2.9 0 6688 1.9 1.84 1.99 100 1.8 1.8
2018-12-10 21:00:00 2.8 2.8 2.9 0 6678 1.7 1.47 1.84 100 1.6 1.4
2018-12-10 22:00:00 2.8 2.8 2.9 0 6678 1.77 1.6 1.89 100 1.7 1.6
2018-12-10 23:00:00 2.9 2.9 3 0 6678 1.34 0.83 1.72 100 1.3 0.8
2018-12-11 00:00:00 2.9 2.8 3 0 6678 1.6 1.08 1.74 100 1.5 1
2018-12-11 01:00:00 2.8 2.8 2.9 0 6678 1.29 0.86 1.71 99.7 1.1 0.8
2018-12-11 02:00:00 2.8 2.8 3 0 6668 0.67 0.54 0.86 100 0.6 0.5
2018-12-11 03:00:00 2.8 2.7 2.9 0 6660 0.79 0.73 0.86 100 0.7 0.7
2018-12-11 04:00:00 2.7 2.7 2.9 0 6660 0.6 0.18 0.78 100 0.5 0.1
2018-12-11 05:00:00 2.7 2.7 2.8 0 6678 0.23 -0.08 0.45 100 0.2 0
2018-12-11 06:00:00 2.7 2.6 2.8 0 6660 0.32 0.18 0.44 100 0.2 0.1
2018-12-11 07:00:00 2.6 2.5 2.7 0 6660 -0.12 -0.6 0.14 99.73 -0.1 -0.6
2018-12-11 08:00:00 2.6 2.5 2.7 0 6660 -0.2 -0.39 -0.01 96.6 -0.6 -0.8
2018-12-11 09:00:00 2.5 2.5 2.6 0 6678 -0.56 -0.82 -0.33 97.74 -0.8 -1
2018-12-11 10:00:00 2.4 2.3 2.6 0 6796 -0.21 -0.7 0.26 99.99 -0.1 -0.7
2018-12-11 11:00:00 2.4 2.3 2.5 0 6982 0.75 0.38 1.12 96.02 0.1 -0.1
2018-12-11 12:00:00 2.4 2.4 2.5 0 7050 1.45 1.21 1.69 88.63 -0.2 -0.5
2018-12-11 13:00:00 2.5 2.4 2.6 0 7206 2.35 1.8 2.93 83 -0.2 -0.7
2018-12-11 14:00:00 2.6 2.5 2.8 0 7080 2.53 2 3.03 76.47 -1.1 -2
2018-12-11 15:00:00 2.6 2.6 2.8 0 6982 2.29 1.8 2.92 74.39 -1.7 -2.3